Time;durP1;ratioP1;P1;durP2;ratioP2;P2;SDS_P1;SDS_P2;PMS_P1;PMS_P2;Temp;Humidity;BMP_temperature;BMP_pressure;BME280_temperature;BME280_humidity;BME280_pressure;Samples;Min_cycle;Max_cycle;Signal;HPM_P1;HPM_P2
2021/10/15 00:01:58;;;;;;;19.05;12.15;;;4.70;99.90;;;;;;4915668;29;20028;-72
2021/10/15 00:04:24;;;;;;;19.38;12.40;;;4.80;99.90;;;;;;4916246;29;20062;-72
2021/10/15 00:06:50;;;;;;;19.98;13.13;;;4.70;99.90;;;;;;4916957;29;20056;-71
2021/10/15 00:09:15;;;;;;;20.25;12.70;;;4.60;99.90;;;;;;4918147;29;20028;-70
2021/10/15 00:11:41;;;;;;;19.10;12.20;;;4.60;99.90;;;;;;4906087;29;20033;-71
2021/10/15 00:14:07;;;;;;;19.27;13.00;;;4.60;99.90;;;;;;4898286;29;20029;-73
2021/10/15 00:16:33;;;;;;;18.52;12.82;;;4.50;99.90;;;;;;4897558;29;20391;-74
2021/10/15 00:18:58;;;;;;;23.30;13.90;;;4.50;99.90;;;;;;4899756;29;20668;-74
2021/10/15 00:21:24;;;;;;;16.98;11.65;;;4.30;99.90;;;;;;4897081;29;20083;-72
2021/10/15 00:23:50;;;;;;;20.50;13.05;;;4.40;99.90;;;;;;4897539;29;20551;-72
2021/10/15 00:26:15;;;;;;;18.83;12.43;;;4.40;99.90;;;;;;4910585;29;20068;-73
2021/10/15 00:28:41;;;;;;;19.75;12.80;;;4.40;99.90;;;;;;4896192;29;20391;-72
2021/10/15 00:31:06;;;;;;;19.83;12.82;;;4.40;99.90;;;;;;4897832;29;20440;-71
2021/10/15 00:33:32;;;;;;;19.30;11.65;;;4.40;99.90;;;;;;4897440;29;20697;-71
2021/10/15 00:35:58;;;;;;;17.48;12.18;;;4.30;99.90;;;;;;4896602;29;20467;-73
2021/10/15 00:38:23;;;;;;;18.95;12.55;;;4.20;99.90;;;;;;4911108;29;20032;-71
2021/10/15 00:40:49;;;;;;;20.38;12.38;;;4.20;99.90;;;;;;4896535;29;20075;-73
2021/10/15 00:43:15;;;;;;;18.45;11.85;;;4.10;99.90;;;;;;4896757;29;20067;-74
2021/10/15 00:45:41;;;;;;;18.58;12.60;;;4.20;99.90;;;;;;4896216;29;20036;-72
2021/10/15 00:48:06;;;;;;;19.27;12.57;;;4.10;99.90;;;;;;4896976;29;20042;-74
2021/10/15 00:50:32;;;;;;;21.38;13.20;;;4.10;99.90;;;;;;4896082;29;20024;-72
2021/10/15 00:52:58;;;;;;;19.02;12.63;;;4.00;99.90;;;;;;4896060;29;20383;-73
2021/10/15 00:55:23;;;;;;;22.13;14.30;;;4.10;99.90;;;;;;4895543;29;20108;-71
2021/10/15 00:57:49;;;;;;;19.95;11.70;;;4.10;99.90;;;;;;4896130;29;20040;-72
2021/10/15 01:00:15;;;;;;;19.45;12.38;;;4.10;99.90;;;;;;4895982;29;20483;-71
2021/10/15 01:02:43;;;;;;;24.17;13.32;;;4.20;99.90;;;;;;4908382;29;20107;-73
2021/10/15 01:05:10;;;;;;;22.92;13.98;;;4.20;99.90;;;;;;4915546;29;20032;-71
2021/10/15 01:07:37;;;;;;;19.92;12.75;;;4.10;99.90;;;;;;4918748;29;20036;-73
2021/10/15 01:10:03;;;;;;;16.33;11.95;;;4.10;99.90;;;;;;4918329;29;20036;-73
2021/10/15 01:12:30;;;;;;;13.75;9.50;;;4.00;99.90;;;;;;4918256;29;20084;-73
2021/10/15 01:14:55;;;;;;;13.98;9.65;;;3.90;99.90;;;;;;4917552;29;20059;-74
2021/10/15 01:17:21;;;;;;;15.70;10.23;;;3.80;99.90;;;;;;4917344;29;20024;-71
2021/10/15 01:19:54;;;;;;;15.77;11.05;;;4.00;99.90;;;;;;4917081;29;20142;-72
2021/10/15 01:22:20;;;;;;;15.93;11.18;;;4.00;99.90;;;;;;4918388;29;20020;-72
2021/10/15 01:24:46;;;;;;;19.05;11.30;;;3.90;99.90;;;;;;4917632;29;20028;-73
2021/10/15 01:27:11;;;;;;;16.25;12.10;;;4.00;99.90;;;;;;4918040;29;20486;-73
2021/10/15 01:29:38;;;;;;;17.02;11.48;;;4.00;99.90;;;;;;4918034;29;20028;-74
2021/10/15 01:32:06;;;;;;;17.88;11.88;;;3.90;99.90;;;;;;4910164;29;20044;-73
2021/10/15 01:34:32;;;;;;;21.60;13.35;;;3.90;99.90;;;;;;4898462;29;20036;-74
2021/10/15 01:36:57;;;;;;;20.83;11.85;;;3.80;99.90;;;;;;4898932;29;20037;-73
2021/10/15 01:39:23;;;;;;;20.80;12.32;;;3.80;99.90;;;;;;4898797;29;20523;-72
2021/10/15 01:41:49;;;;;;;23.80;12.73;;;3.80;99.90;;;;;;4898621;29;20036;-71
2021/10/15 01:44:14;;;;;;;19.38;11.70;;;3.70;99.90;;;;;;4898749;29;20399;-72
2021/10/15 01:46:40;;;;;;;24.17;12.95;;;3.80;99.90;;;;;;4913413;29;20112;-72
2021/10/15 01:49:06;;;;;;;21.25;13.60;;;3.70;99.90;;;;;;4898846;29;20108;-72
2021/10/15 01:51:31;;;;;;;24.58;14.88;;;3.80;99.90;;;;;;4909389;29;20545;-72
2021/10/15 01:53:57;;;;;;;23.70;14.82;;;3.90;99.90;;;;;;4916551;29;20024;-72
2021/10/15 01:56:23;;;;;;;31.00;15.30;;;3.90;99.90;;;;;;4917044;29;20494;-73
2021/10/15 01:58:48;;;;;;;31.50;16.52;;;3.80;99.90;;;;;;4916535;29;20032;-72
2021/10/15 02:01:14;;;;;;;30.15;17.23;;;3.80;99.90;;;;;;4916978;29;20039;-72
2021/10/15 02:03:40;;;;;;;31.40;17.13;;;3.90;99.90;;;;;;4917363;29;20430;-72
2021/10/15 02:06:05;;;;;;;26.88;15.93;;;3.90;99.90;;;;;;4916614;29;20031;-72
2021/10/15 02:08:31;;;;;;;31.65;17.00;;;3.90;99.90;;;;;;4917139;29;20032;-72
2021/10/15 02:10:57;;;;;;;31.55;16.88;;;3.90;99.90;;;;;;4917411;29;20479;-72
2021/10/15 02:13:22;;;;;;;29.42;15.55;;;3.90;99.90;;;;;;4917067;29;20076;-72
2021/10/15 02:15:48;;;;;;;28.88;15.57;;;3.80;99.90;;;;;;4915542;29;20372;-72
2021/10/15 02:18:14;;;;;;;22.77;14.98;;;3.90;99.90;;;;;;4916477;29;20056;-73
2021/10/15 02:20:39;;;;;;;23.58;15.05;;;3.80;99.90;;;;;;4917230;29;20032;-72
2021/10/15 02:23:05;;;;;;;23.45;14.55;;;3.80;99.90;;;;;;4917198;29;20020;-72
2021/10/15 02:25:31;;;;;;;26.73;14.02;;;3.80;99.90;;;;;;4916658;29;20036;-72
2021/10/15 02:27:56;;;;;;;24.55;13.90;;;3.80;99.90;;;;;;4917360;29;20598;-73
2021/10/15 02:30:26;;;;;;;26.30;14.25;;;3.60;99.90;;;;;;4916913;29;20064;-73
2021/10/15 02:32:52;;;;;;;21.02;12.75;;;3.60;99.90;;;;;;4916851;29;20035;-72
2021/10/15 02:35:18;;;;;;;26.30;13.35;;;3.60;99.90;;;;;;4916219;29;20032;-71
2021/10/15 02:37:45;;;;;;;20.73;13.35;;;3.50;99.90;;;;;;4917044;29;20040;-72
2021/10/15 02:40:11;;;;;;;21.50;13.60;;;3.50;99.90;;;;;;4916967;29;20514;-72
2021/10/15 02:42:38;;;;;;;22.02;13.80;;;3.50;99.90;;;;;;4916809;29;20136;-71
2021/10/15 02:45:05;;;;;;;28.83;15.40;;;3.50;99.90;;;;;;4914776;29;20615;-72
2021/10/15 02:47:31;;;;;;;29.13;14.40;;;3.40;99.90;;;;;;4916765;29;20028;-71
2021/10/15 02:49:57;;;;;;;25.00;15.00;;;3.40;99.90;;;;;;4916550;29;20675;-70
2021/10/15 02:52:23;;;;;;;30.10;15.50;;;3.40;99.90;;;;;;4916592;29;20036;-73
2021/10/15 02:54:49;;;;;;;27.50;15.40;;;3.40;99.90;;;;;;4916134;29;20031;-73
2021/10/15 02:57:14;;;;;;;35.28;15.80;;;3.50;99.90;;;;;;4916568;29;20028;-73
2021/10/15 02:59:40;;;;;;;28.40;16.67;;;3.40;99.90;;;;;;4916282;29;20115;-73
2021/10/15 03:02:06;;;;;;;26.17;16.15;;;3.50;99.90;;;;;;4916541;29;20035;-73
2021/10/15 03:04:32;;;;;;;29.52;16.90;;;3.50;99.90;;;;;;4916884;29;20490;-73
2021/10/15 03:06:58;;;;;;;30.80;17.88;;;3.50;99.90;;;;;;4917935;29;20059;-73
2021/10/15 03:09:23;;;;;;;35.60;17.27;;;3.50;99.90;;;;;;4917297;29;20397;-72
2021/10/15 03:11:49;;;;;;;33.33;17.27;;;3.50;99.90;;;;;;4917076;29;20454;-73
2021/10/15 03:14:15;;;;;;;26.05;14.50;;;3.40;99.90;;;;;;4931291;29;20025;-72
2021/10/15 03:16:40;;;;;;;18.77;11.40;;;3.30;99.90;;;;;;4917686;29;20032;-73
2021/10/15 03:19:06;;;;;;;18.60;11.95;;;3.30;99.90;;;;;;4917167;29;20028;-72
2021/10/15 03:21:32;;;;;;;17.83;11.27;;;3.20;99.90;;;;;;4917117;29;20438;-73
2021/10/15 03:23:57;;;;;;;25.38;13.23;;;3.20;99.90;;;;;;4916711;29;20035;-71
2021/10/15 03:26:23;;;;;;;18.33;12.00;;;3.20;99.90;;;;;;4932848;23;20059;-74
2021/10/15 03:28:49;;;;;;;23.40;11.75;;;3.20;99.90;;;;;;4949648;28;20136;-74
2021/10/15 03:31:14;;;;;;;16.13;10.60;;;3.20;99.90;;;;;;4935270;29;20054;-74
2021/10/15 03:33:43;;;;;;;19.15;11.85;;;3.20;99.90;;;;;;4934671;29;20106;-74
2021/10/15 03:36:20;;;;;;;17.45;11.57;;;3.30;99.90;;;;;;4934764;29;20028;-74
2021/10/15 03:38:48;;;;;;;20.10;11.70;;;3.30;99.90;;;;;;4935279;29;20028;-74
2021/10/15 03:41:35;;;;;;;;;;;;;;;;;;;;;
2021/10/15 03:50:17;;;;;;;26.65;14.77;;;3.30;99.90;;;;;;4913744;29;20040;-74
2021/10/15 03:53:08;;;;;;;27.05;15.38;;;3.30;99.90;;;;;;4935109;29;20111;-75
2021/10/15 03:56:14;;;;;;;23.00;14.02;;;3.20;99.90;;;;;;4934090;29;20389;-74
2021/10/15 03:58:43;;;;;;;29.95;16.50;;;3.20;99.90;;;;;;4927688;29;20722;-74
2021/10/15 04:01:09;;;;;;;30.55;16.35;;;3.10;99.90;;;;;;4934816;29;20474;-73
2021/10/15 04:03:37;;;;;;;28.33;15.82;;;3.10;99.90;;;;;;4934776;29;20079;-74
2021/10/15 04:06:03;;;;;;;24.90;14.20;;;3.00;99.90;;;;;;4934063;29;20032;-74
2021/10/15 04:08:28;;;;;;;28.35;14.80;;;3.00;99.90;;;;;;4934677;29;20028;-74
2021/10/15 04:10:54;;;;;;;25.42;14.20;;;2.90;99.90;;;;;;4934660;29;20036;-74
2021/10/15 04:13:20;;;;;;;22.45;13.70;;;3.00;99.90;;;;;;4934642;29;20042;-75
2021/10/15 04:15:45;;;;;;;23.48;13.68;;;3.00;99.90;;;;;;4933931;29;20027;-74
2021/10/15 04:18:11;;;;;;;25.63;15.43;;;3.00;99.90;;;;;;4949195;28;20024;-74
2021/10/15 04:20:37;;;;;;;27.52;14.93;;;3.00;99.90;;;;;;4933935;29;20510;-74
2021/10/15 04:23:03;;;;;;;27.00;15.05;;;2.90;99.90;;;;;;4933307;29;20037;-73
2021/10/15 04:25:34;;;;;;;26.52;14.70;;;2.90;99.90;;;;;;4933836;29;20516;-74
2021/10/15 04:28:00;;;;;;;26.23;15.15;;;3.00;99.90;;;;;;4934265;29;20071;-74
2021/10/15 04:33:48;;;;;;;27.95;15.10;;;2.90;99.90;;;;;;4939204;28;20115;-73
2021/10/15 04:36:14;;;;;;;27.33;14.83;;;2.80;99.90;;;;;;4932301;29;20054;-75
2021/10/15 04:38:39;;;;;;;24.13;14.43;;;2.80;99.90;;;;;;4932112;29;20385;-81
2021/10/15 04:41:05;;;;;;;25.15;13.68;;;2.90;99.90;;;;;;4943077;29;20032;-82
2021/10/15 04:43:31;;;;;;;25.48;14.75;;;2.80;99.90;;;;;;4944381;29;20630;-81
2021/10/15 04:45:56;;;;;;;26.33;14.93;;;2.90;99.90;;;;;;4944562;29;20028;-82
2021/10/15 04:48:22;;;;;;;25.42;14.38;;;2.90;99.90;;;;;;4947042;29;20028;-82
2021/10/15 04:50:48;;;;;;;26.48;14.32;;;2.90;99.90;;;;;;4948035;29;20031;-82
2021/10/15 04:53:31;;;;;;;19.85;12.13;;;2.80;99.90;;;;;;4944651;29;20023;-83
2021/10/15 04:56:05;;;;;;;24.60;12.25;;;2.60;99.90;;;;;;4944824;29;20036;-82
2021/10/15 04:58:31;;;;;;;19.98;12.63;;;2.60;99.90;;;;;;4946469;29;20042;-81
2021/10/15 05:00:57;;;;;;;20.30;13.48;;;2.70;99.90;;;;;;4947258;29;20032;-81
2021/10/15 05:03:22;;;;;;;19.25;12.32;;;2.70;99.90;;;;;;4946786;29;20035;-81
2021/10/15 05:05:51;;;;;;;26.75;13.75;;;2.70;99.90;;;;;;4947188;29;20035;-82
2021/10/15 05:08:17;;;;;;;21.35;14.02;;;2.80;99.90;;;;;;4947704;29;20103;-82
2021/10/15 05:10:44;;;;;;;22.42;13.48;;;2.80;99.90;;;;;;4948960;29;20457;-80
2021/10/15 05:13:11;;;;;;;19.95;13.02;;;2.80;99.90;;;;;;4947998;29;20102;-81
2021/10/15 05:15:37;;;;;;;22.10;13.20;;;2.80;99.90;;;;;;4945756;29;20024;-81
2021/10/15 05:18:03;;;;;;;21.20;12.90;;;2.70;99.90;;;;;;4950634;29;20343;-82
2021/10/15 05:20:29;;;;;;;26.00;13.55;;;2.70;99.90;;;;;;4962664;29;20035;-78
2021/10/15 05:22:54;;;;;;;25.77;13.85;;;2.70;99.90;;;;;;4963402;29;20059;-78
2021/10/15 05:25:20;;;;;;;21.42;12.63;;;2.70;99.90;;;;;;4959440;29;20040;-77
2021/10/15 05:27:45;;;;;;;23.50;13.88;;;2.70;99.90;;;;;;4945563;29;20067;-77
2021/10/15 05:30:12;;;;;;;24.30;14.02;;;2.80;99.90;;;;;;4943541;29;20035;-77
2021/10/15 05:32:38;;;;;;;23.38;13.32;;;2.70;99.90;;;;;;4944094;29;20027;-81
2021/10/15 05:35:06;;;;;;;24.23;13.45;;;2.80;99.90;;;;;;4942548;29;20078;-80
2021/10/15 05:37:35;;;;;;;24.02;13.07;;;2.90;99.90;;;;;;4941593;29;20486;-81
2021/10/15 05:40:02;;;;;;;22.15;14.45;;;2.80;99.90;;;;;;4940724;29;20035;-81
2021/10/15 05:42:27;;;;;;;20.65;13.32;;;2.80;99.90;;;;;;4941773;29;20059;-80
2021/10/15 05:44:53;;;;;;;21.85;13.48;;;2.70;99.90;;;;;;4943414;29;20027;-80
2021/10/15 05:47:19;;;;;;;24.75;13.25;;;2.80;99.90;;;;;;4944907;29;20027;-80
2021/10/15 05:49:44;;;;;;;23.10;14.70;;;2.80;99.90;;;;;;4948430;29;20038;-81
2021/10/15 05:52:13;;;;;;;21.83;14.07;;;2.80;99.90;;;;;;4941505;29;20106;-80
2021/10/15 05:54:57;;;;;;;24.20;14.48;;;2.70;99.90;;;;;;4939141;29;20071;-81
2021/10/15 05:59:54;;;;;;;26.15;14.57;;;2.90;99.90;;;;;;4944028;29;20132;-80
2021/10/15 06:02:21;;;;;;;25.67;15.40;;;2.90;99.90;;;;;;4940589;29;20073;-79
2021/10/15 06:14:51;;;;;;;19.85;13.00;;;3.30;99.90;;;;;;4927337;29;20076;-84
2021/10/15 06:17:18;;;;;;;20.23;13.38;;;3.50;99.90;;;;;;4943887;28;20024;-76
2021/10/15 06:22:13;;;;;;;19.80;11.40;;;3.40;99.90;;;;;;4920924;29;20056;-78
2021/10/15 06:24:39;;;;;;;16.90;11.43;;;3.60;99.90;;;;;;4916896;29;20036;-75
2021/10/15 06:27:05;;;;;;;18.83;10.77;;;3.70;99.90;;;;;;4917820;29;20036;-76
2021/10/15 06:29:30;;;;;;;17.17;9.65;;;3.60;99.90;;;;;;4917892;29;20103;-77
2021/10/15 06:31:56;;;;;;;15.30;10.18;;;3.60;99.90;;;;;;4917933;29;20032;-77
2021/10/15 06:34:22;;;;;;;15.85;10.57;;;3.60;99.90;;;;;;4926209;29;20407;-77
2021/10/15 06:36:47;;;;;;;15.93;10.25;;;3.70;99.90;;;;;;4936865;29;20027;-78
2021/10/15 06:39:13;;;;;;;15.55;10.48;;;3.80;99.90;;;;;;4937271;29;20071;-77
2021/10/15 06:41:39;;;;;;;17.60;10.48;;;3.80;99.90;;;;;;4937386;29;20513;-77
2021/10/15 06:44:04;;;;;;;16.38;10.90;;;4.00;99.90;;;;;;4937305;29;20038;-77
2021/10/15 06:46:30;;;;;;;16.38;11.27;;;4.00;99.90;;;;;;4934927;29;20573;-75
2021/10/15 06:48:56;;;;;;;16.17;10.63;;;4.00;99.90;;;;;;4935761;29;20024;-77
2021/10/15 06:51:21;;;;;;;13.65;10.23;;;3.90;99.90;;;;;;4936234;29;20111;-77
2021/10/15 06:53:47;;;;;;;17.42;10.50;;;4.00;99.90;;;;;;4935253;29;20028;-77
2021/10/15 06:56:13;;;;;;;14.75;10.40;;;4.00;99.90;;;;;;4950617;28;20027;-77
2021/10/15 06:58:39;;;;;;;17.73;11.07;;;4.10;99.90;;;;;;4933781;29;20471;-76
2021/10/15 07:01:05;;;;;;;17.58;11.40;;;4.20;99.90;;;;;;4935799;29;20507;-76
2021/10/15 07:03:30;;;;;;;17.90;10.15;;;4.10;99.90;;;;;;4935473;29;20114;-77
2021/10/15 07:05:56;;;;;;;13.93;9.95;;;4.10;99.90;;;;;;4934092;29;20402;-77
2021/10/15 07:08:24;;;;;;;22.08;11.10;;;4.20;99.90;;;;;;4936392;29;20032;-77
2021/10/15 07:10:49;;;;;;;17.77;10.60;;;4.20;99.90;;;;;;4936385;29;20062;-77
2021/10/15 07:13:15;;;;;;;16.85;11.00;;;4.20;99.90;;;;;;4936018;29;20048;-77
2021/10/15 07:15:46;;;;;;;18.65;11.20;;;4.40;99.90;;;;;;4936252;29;20371;-77
2021/10/15 07:18:12;;;;;;;16.50;9.95;;;4.60;99.90;;;;;;4935971;29;20027;-76
2021/10/15 07:20:38;;;;;;;16.33;10.32;;;4.90;99.90;;;;;;4935051;29;20039;-77
2021/10/15 07:23:05;;;;;;;15.75;10.02;;;5.00;99.90;;;;;;4936068;29;20545;-77
2021/10/15 07:25:31;;;;;;;10.90;8.98;;;5.20;99.90;;;;;;4934457;29;20482;-77
2021/10/15 07:27:56;;;;;;;11.95;8.70;;;5.30;99.90;;;;;;4934577;29;20042;-77
2021/10/15 07:30:22;;;;;;;13.65;9.45;;;5.40;99.90;;;;;;4936555;29;20023;-76
2021/10/15 07:32:52;;;;;;;14.85;9.10;;;5.50;99.90;;;;;;4934395;29;20503;-76
2021/10/15 07:35:18;;;;;;;12.70;8.35;;;5.60;99.90;;;;;;4935113;29;20024;-78
2021/10/15 07:37:44;;;;;;;12.00;7.80;;;5.80;99.90;;;;;;4936437;29;20110;-76
2021/10/15 07:40:10;;;;;;;11.82;7.63;;;5.90;99.90;;;;;;4934095;29;20117;-76
2021/10/15 07:42:35;;;;;;;9.95;7.30;;;6.20;99.90;;;;;;4950022;28;20482;-76
2021/10/15 07:45:02;;;;;;;10.88;8.23;;;6.50;99.90;;;;;;4949460;28;20058;-76
2021/10/15 07:47:27;;;;;;;9.82;7.20;;;6.70;99.90;;;;;;4935064;29;20059;-76
2021/10/15 07:49:53;;;;;;;12.23;7.60;;;7.00;99.90;;;;;;4935258;29;20083;-77
2021/10/15 07:52:19;;;;;;;10.45;6.95;;;7.20;99.90;;;;;;4935049;29;20028;-77
2021/10/15 07:54:44;;;;;;;7.80;6.53;;;7.30;99.90;;;;;;4934551;29;20028;-76
2021/10/15 07:57:12;;;;;;;9.88;7.05;;;7.20;99.90;;;;;;4934692;29;20035;-75
2021/10/15 07:59:38;;;;;;;11.73;8.00;;;7.30;99.90;;;;;;4935196;29;20401;-76
2021/10/15 08:02:04;;;;;;;8.38;6.82;;;7.60;99.90;;;;;;4935393;29;20055;-76
2021/10/15 08:04:30;;;;;;;10.98;7.60;;;8.00;99.90;;;;;;4934509;29;20098;-76
2021/10/15 08:06:56;;;;;;;13.43;8.52;;;8.30;99.90;;;;;;4934714;29;20747;-75
2021/10/15 08:09:22;;;;;;;9.98;8.25;;;8.90;99.90;;;;;;4934898;29;20044;-76
2021/10/15 08:11:48;;;;;;;15.65;8.80;;;9.80;99.90;;;;;;4934626;29;20086;-74
2021/10/15 08:14:14;;;;;;;14.25;8.88;;;10.10;99.90;;;;;;4933050;29;20036;-74
2021/10/15 08:16:39;;;;;;;14.95;8.32;;;10.00;99.90;;;;;;4933449;29;20023;-74
2021/10/15 08:19:05;;;;;;;12.30;8.52;;;11.40;99.90;;;;;;4935269;29;20038;-74
2021/10/15 08:21:31;;;;;;;14.98;7.25;;;12.30;99.90;;;;;;4933958;29;20107;-76
2021/10/15 08:23:57;;;;;;;8.00;6.05;;;12.40;99.90;;;;;;4934460;29;20035;-78
2021/10/15 08:26:23;;;;;;;7.80;6.30;;;12.60;99.90;;;;;;4934611;29;20162;-75
2021/10/15 08:28:48;;;;;;;7.25;6.38;;;12.80;99.90;;;;;;4934120;29;20051;-75
2021/10/15 08:31:18;;;;;;;7.85;6.20;;;12.50;99.90;;;;;;4934173;29;20043;-75
2021/10/15 08:33:43;;;;;;;8.82;5.75;;;12.10;99.90;;;;;;4932958;29;20051;-75
2021/10/15 08:36:09;;;;;;;5.95;5.43;;;12.10;99.90;;;;;;4933325;29;20024;-74
2021/10/15 08:38:34;;;;;;;8.73;6.00;;;12.50;99.90;;;;;;4934427;29;20032;-74
2021/10/15 08:41:00;;;;;;;9.68;5.45;;;11.60;99.90;;;;;;4933716;29;20020;-74
2021/10/15 08:43:39;;;;;;;6.97;6.13;;;11.70;99.90;;;;;;4933922;29;20024;-74
2021/10/15 08:46:06;;;;;;;8.85;5.97;;;12.00;99.90;;;;;;4932407;29;20062;-74
2021/10/15 08:48:31;;;;;;;6.47;5.85;;;11.60;99.90;;;;;;4932205;29;20031;-74
2021/10/15 08:50:57;;;;;;;8.10;6.20;;;11.00;99.90;;;;;;4934479;29;20487;-74
2021/10/15 08:53:24;;;;;;;11.45;5.88;;;12.00;99.90;;;;;;4933746;29;20213;-74
2021/10/15 08:55:50;;;;;;;6.90;6.28;;;13.70;99.90;;;;;;4931720;29;20028;-74
2021/10/15 08:58:16;;;;;;;7.45;6.43;;;14.70;99.90;;;;;;4934154;29;20030;-74
2021/10/15 09:00:41;;;;;;;8.80;5.97;;;16.10;99.90;;;;;;4934110;29;20026;-74
2021/10/15 09:03:22;;;;;;;6.45;5.57;;;16.20;99.90;;;;;;4933396;29;20028;-74
2021/10/15 09:05:52;;;;;;;9.10;6.15;;;15.30;99.90;;;;;;4933921;29;20102;-74
2021/10/15 09:08:18;;;;;;;7.10;5.63;;;15.50;99.90;;;;;;4934578;29;20032;-74
2021/10/15 09:10:44;;;;;;;8.63;6.25;;;16.40;99.90;;;;;;4932376;29;20035;-74
2021/10/15 09:13:19;;;;;;;8.30;6.47;;;15.70;99.90;;;;;;4933515;29;20394;-74
2021/10/15 09:15:51;;;;;;;8.90;6.15;;;16.30;99.90;;;;;;4933332;29;20024;-74
2021/10/15 09:18:20;;;;;;;8.93;6.20;;;15.80;99.90;;;;;;4932221;29;20367;-74
2021/10/15 09:20:48;;;;;;;12.18;5.95;;;16.20;99.90;;;;;;4933953;29;20027;-74
2021/10/15 09:23:14;;;;;;;11.02;6.90;;;14.70;99.90;;;;;;4933887;29;20027;-74
2021/10/15 09:25:46;;;;;;;10.27;5.25;;;15.40;99.90;;;;;;4933338;29;20480;-74
2021/10/15 09:28:22;;;;;;;7.18;6.47;;;16.10;99.90;;;;;;4937029;29;20027;-74
2021/10/15 09:30:51;;;;;;;9.68;5.78;;;15.70;99.90;;;;;;4937885;29;20028;-74
2021/10/15 09:33:20;;;;;;;6.10;5.50;;;16.00;99.90;;;;;;4936766;29;20036;-74
2021/10/15 09:35:46;;;;;;;8.55;5.78;;;15.70;99.90;;;;;;4935847;29;20032;-74
2021/10/15 09:38:12;;;;;;;5.78;5.18;;;14.70;99.90;;;;;;4937059;23;20040;-73
2021/10/15 09:40:42;;;;;;;6.07;5.45;;;16.30;99.90;;;;;;4932617;29;20422;-73
2021/10/15 09:43:10;;;;;;;7.40;5.03;;;16.90;99.90;;;;;;4916540;29;20031;-71
2021/10/15 09:45:45;;;;;;;7.40;5.25;;;18.10;99.90;;;;;;4916456;29;20057;-71
2021/10/15 09:48:31;;;;;;;5.72;5.03;;;17.90;99.90;;;;;;4910015;29;20024;-71
2021/10/15 09:51:19;;;;;;;7.68;5.57;;;17.60;99.90;;;;;;4911917;29;20060;-72
2021/10/15 09:54:10;;;;;;;7.75;5.40;;;17.40;99.90;;;;;;4911895;29;20028;-72
2021/10/15 09:56:46;;;;;;;8.68;5.55;;;16.70;99.90;;;;;;4906846;29;20446;-71
2021/10/15 09:59:13;;;;;;;11.90;6.05;;;15.10;99.90;;;;;;4909754;29;20031;-71
2021/10/15 10:01:39;;;;;;;6.05;5.35;;;15.10;99.90;;;;;;4908406;29;20775;-70
2021/10/15 10:04:06;;;;;;;7.82;5.18;;;15.10;99.90;;;;;;4908624;29;20107;-72
2021/10/15 10:06:32;;;;;;;10.70;5.93;;;16.50;99.90;;;;;;4906512;29;20031;-71
2021/10/15 10:08:59;;;;;;;7.05;4.40;;;17.90;99.90;;;;;;4906551;29;20036;-71
2021/10/15 10:11:25;;;;;;;5.15;4.40;;;19.10;99.90;;;;;;4901138;29;20115;-70
2021/10/15 10:13:51;;;;;;;6.43;4.32;;;19.10;99.90;;;;;;4898949;29;20032;-71
2021/10/15 10:16:17;;;;;;;5.95;4.75;;;19.70;98.20;;;;;;4898318;29;20028;-72
2021/10/15 10:18:45;;;;;;;9.15;4.43;;;18.90;98.00;;;;;;4898092;29;20104;-73
2021/10/15 10:21:21;;;;;;;7.30;4.22;;;19.10;97.90;;;;;;4898819;29;20036;-72
2021/10/15 10:24:01;;;;;;;4.28;3.80;;;19.10;97.10;;;;;;4898794;29;20554;-72
2021/10/15 10:26:27;;;;;;;5.80;4.18;;;19.40;98.70;;;;;;4897989;29;20033;-72
2021/10/15 10:29:06;;;;;;;4.53;4.13;;;19.40;97.30;;;;;;4898589;29;20040;-72
2021/10/15 10:31:33;;;;;;;4.80;4.35;;;18.90;97.50;;;;;;4899830;29;20029;-72
2021/10/15 10:34:00;;;;;;;4.15;3.75;;;17.90;99.30;;;;;;4917474;29;20059;-71
2021/10/15 10:36:29;;;;;;;4.18;3.50;;;18.30;99.80;;;;;;4916261;29;20063;-71
2021/10/15 10:38:55;;;;;;;4.63;3.63;;;19.40;98.20;;;;;;4916233;29;20044;-72
2021/10/15 10:41:24;;;;;;;7.60;3.30;;;19.90;96.50;;;;;;4917444;29;20071;-71
2021/10/15 10:43:50;;;;;;;4.55;3.97;;;18.90;96.20;;;;;;4917168;29;20164;-72
2021/10/15 10:46:27;;;;;;;4.97;3.20;;;19.90;96.40;;;;;;4916275;29;20107;-71
2021/10/15 10:48:52;;;;;;;9.80;3.63;;;20.40;93.90;;;;;;4916422;29;20021;-72
2021/10/15 10:51:18;;;;;;;3.90;2.95;;;22.10;94.00;;;;;;4916692;29;20120;-72
2021/10/15 10:53:59;;;;;;;3.42;3.08;;;23.20;92.50;;;;;;4916840;29;20028;-72
2021/10/15 10:56:40;;;;;;;3.50;3.20;;;22.00;91.00;;;;;;4916598;29;20031;-73
2021/10/15 10:59:21;;;;;;;3.30;3.08;;;23.20;90.50;;;;;;4931329;29;20024;-72
2021/10/15 11:01:50;;;;;;;3.40;3.10;;;23.80;90.70;;;;;;4909783;29;20025;-73
2021/10/15 11:04:30;;;;;;;5.78;3.17;;;24.60;85.80;;;;;;4896568;29;20428;-72
2021/10/15 11:07:02;;;;;;;2.20;2.10;;;25.00;84.50;;;;;;4897527;29;20026;-72
2021/10/15 11:09:31;;;;;;;2.38;2.17;;;25.20;80.50;;;;;;4898021;29;20028;-73
2021/10/15 11:11:57;;;;;;;3.80;2.22;;;24.80;77.60;;;;;;4896863;29;20395;-73
2021/10/15 11:14:44;;;;;;;3.00;2.00;;;23.40;79.00;;;;;;4897021;29;20032;-72
2021/10/15 11:17:11;;;;;;;3.47;2.10;;;22.80;84.20;;;;;;4897484;29;20025;-73
2021/10/15 11:19:37;;;;;;;4.03;2.20;;;23.80;78.30;;;;;;4899563;29;20032;-72
2021/10/15 11:22:03;;;;;;;3.60;2.00;;;23.20;81.50;;;;;;4897854;29;20091;-72
2021/10/15 11:24:28;;;;;;;1.73;1.58;;;24.20;80.70;;;;;;4897082;29;20423;-74
2021/10/15 11:26:55;;;;;;;2.45;1.90;;;23.60;77.00;;;;;;4897319;29;20029;-73
2021/10/15 11:29:21;;;;;;;4.07;1.75;;;24.20;78.00;;;;;;4897687;29;20025;-71
2021/10/15 11:31:58;;;;;;;9.55;2.53;;;25.50;77.80;;;;;;4897461;29;20108;-72
2021/10/15 11:34:24;;;;;;;1.88;1.77;;;25.00;73.40;;;;;;4904325;29;20075;-72
2021/10/15 11:37:03;;;;;;;2.45;1.85;;;23.10;78.10;;;;;;4915944;29;20483;-71
2021/10/15 11:39:29;;;;;;;4.10;1.70;;;21.20;82.50;;;;;;4916209;29;20107;-71
2021/10/15 11:41:55;;;;;;;3.65;1.85;;;21.50;84.20;;;;;;4909020;29;20123;-77
2021/10/15 11:44:37;;;;;;;3.10;1.58;;;21.40;84.20;;;;;;4915386;29;20566;-76
2021/10/15 11:47:02;;;;;;;;;;;21.50;81.00;;;;;;4915952;29;20032;-74
2021/10/15 11:49:36;;;;;;;2.35;1.70;;;23.40;81.10;;;;;;4916045;29;19907;-75
2021/10/15 11:52:02;;;;;;;1.55;1.45;;;23.10;76.30;;;;;;4898947;29;20509;-74
2021/10/15 11:54:27;;;;;;;1.48;1.38;;;22.20;79.90;;;;;;4896464;29;20029;-75
2021/10/15 11:56:53;;;;;;;2.10;1.63;;;23.10;78.70;;;;;;4897938;29;20415;-75
2021/10/15 11:59:23;;;;;;;1.50;1.40;;;23.60;74.60;;;;;;4903362;29;20028;-73
2021/10/15 12:01:49;;;;;;;1.55;1.45;;;25.40;74.40;;;;;;4915225;29;20036;-74
2021/10/15 12:04:15;;;;;;;1.52;1.42;;;26.00;71.70;;;;;;4915511;29;20036;-75
2021/10/15 12:06:48;;;;;;;2.42;1.95;;;25.40;73.00;;;;;;4915334;29;20546;-76
2021/10/15 12:09:17;;;;;;;3.00;2.03;;;25.00;71.40;;;;;;4915619;29;20107;-75
2021/10/15 12:11:46;;;;;;;2.80;2.00;;;23.80;73.00;;;;;;4915694;29;20040;-75
2021/10/15 12:14:21;;;;;;;4.35;1.80;;;23.50;76.90;;;;;;4915820;29;20032;-74
2021/10/15 12:16:48;;;;;;;1.98;1.83;;;22.50;78.00;;;;;;4915392;29;20059;-74
2021/10/15 12:19:30;;;;;;;7.78;1.63;;;22.70;78.30;;;;;;4915705;29;20553;-75
2021/10/15 12:22:01;;;;;;;;;;;23.60;75.80;;;;;;4916460;29;20483;-76
2021/10/15 12:24:29;;;;;;;3.55;1.92;;;24.00;71.50;;;;;;4915400;29;19947;-76
2021/10/15 12:27:08;;;;;;;1.73;1.63;;;22.40;76.40;;;;;;4915128;29;20039;-75
2021/10/15 12:29:42;;;;;;;1.80;1.70;;;23.50;76.90;;;;;;4915481;29;20028;-76
2021/10/15 12:32:09;;;;;;;2.03;1.90;;;23.50;75.40;;;;;;4915115;29;20087;-77
2021/10/15 12:34:52;;;;;;;2.97;1.35;;;23.60;76.00;;;;;;4929354;29;20076;-75
2021/10/15 12:37:37;;;;;;;3.08;1.70;;;23.10;76.00;;;;;;4915190;29;20824;-76
2021/10/15 12:40:20;;;;;;;1.30;1.20;;;23.40;75.00;;;;;;4915530;29;20016;-76
2021/10/15 12:43:12;;;;;;;1.50;1.40;;;24.40;72.70;;;;;;4915185;29;20024;-75
2021/10/15 12:45:42;;;;;;;1.67;1.38;;;22.40;76.30;;;;;;4904435;29;20581;-75
2021/10/15 12:48:23;;;;;;;1.65;1.30;;;21.30;79.70;;;;;;4897601;29;20024;-75
2021/10/15 12:51:00;;;;;;;2.38;1.70;;;21.30;81.60;;;;;;4899267;29;20067;-75
2021/10/15 12:53:26;;;;;;;1.67;1.58;;;21.90;81.80;;;;;;4899459;29;20056;-74
2021/10/15 12:55:58;;;;;;;2.65;1.50;;;22.30;78.80;;;;;;4895516;29;20476;-75
2021/10/15 12:58:26;;;;;;;1.70;1.60;;;22.50;79.60;;;;;;4910238;29;20092;-77
2021/10/15 13:00:55;;;;;;;1.65;1.45;;;22.00;79.00;;;;;;4896951;29;20032;-77
2021/10/15 13:03:22;;;;;;;2.22;1.63;;;23.50;77.80;;;;;;4915528;29;20056;-76
2021/10/15 13:05:49;;;;;;;2.15;1.60;;;24.40;75.40;;;;;;4918121;29;20103;-76
2021/10/15 13:08:16;;;;;;;2.15;1.50;;;24.40;75.00;;;;;;4918621;29;20159;-76
2021/10/15 13:10:42;;;;;;;2.63;1.58;;;23.10;75.20;;;;;;4918417;29;20119;-77
2021/10/15 13:13:08;;;;;;;1.85;1.70;;;21.70;81.80;;;;;;4917309;29;20028;-75